Time;durP1;ratioP1;P1;durP2;ratioP2;P2;SDS_P1;SDS_P2;PMS_P1;PMS_P2;Temp;Humidity;BMP_temperature;BMP_pressure;BME280_temperature;BME280_humidity;BME280_pressure;Samples;Min_cycle;Max_cycle;Signal;HPM_P1;HPM_P2
2022/06/22 00:01:27;;;;;;;2.63;0.80;;;;;;;;;;21085422;28;20055;-61
2022/06/22 00:11:30;;;;;;;1.30;0.70;;;;;;;;;;20990935;28;20155;-56
2022/06/22 00:21:35;;;;;;;2.42;0.90;;;;;;;;;;20990658;28;20543;-60
2022/06/22 00:31:49;;;;;;;3.00;0.93;;;;;;;;;;20989213;28;20052;-60
2022/06/22 00:41:54;;;;;;;2.88;0.90;;;;;;;;;;21014932;28;20075;-56
2022/06/22 00:51:59;;;;;;;3.30;0.85;;;;;;;;;;21081478;28;20561;-61
2022/06/22 01:02:12;;;;;;;4.38;0.73;;;;;;;;;;21079429;28;20097;-57
2022/06/22 01:12:23;;;;;;;6.43;0.93;;;;;;;;;;21078551;28;20055;-56
2022/06/22 01:22:36;;;;;;;2.42;0.90;;;;;;;;;;21078558;28;20131;-57
2022/06/22 01:32:43;;;;;;;4.82;1.17;;;;;;;;;;21077779;28;20055;-61
2022/06/22 01:43:09;;;;;;;2.03;0.90;;;;;;;;;;21077576;28;20135;-56
2022/06/22 01:53:35;;;;;;;2.40;0.82;;;;;;;;;;21076731;28;20044;-61
2022/06/22 02:03:50;;;;;;;2.33;0.90;;;;;;;;;;21082997;28;20048;-58
2022/06/22 02:14:08;;;;;;;2.67;0.88;;;;;;;;;;21094591;28;20048;-63
2022/06/22 02:24:37;;;;;;;4.35;1.23;;;;;;;;;;21092212;28;20044;-61
2022/06/22 02:34:48;;;;;;;2.53;0.80;;;;;;;;;;21092313;28;20073;-59
2022/06/22 02:44:56;;;;;;;1.85;0.65;;;;;;;;;;21090772;28;20428;-62
2022/06/22 02:55:00;;;;;;;3.25;0.95;;;;;;;;;;21090033;28;20044;-62
2022/06/22 03:05:05;;;;;;;2.65;0.60;;;;;;;;;;21089255;28;20098;-58
2022/06/22 03:15:13;;;;;;;3.03;0.60;;;;;;;;;;21087962;28;20416;-64
2022/06/22 03:25:19;;;;;;;2.17;0.73;;;;;;;;;;21087630;28;20058;-56
2022/06/22 03:35:31;;;;;;;2.75;0.80;;;;;;;;;;21086034;28;20537;-60
2022/06/22 03:45:48;;;;;;;1.50;0.80;;;;;;;;;;21085976;28;20056;-59
2022/06/22 03:55:53;;;;;;;4.47;1.45;;;;;;;;;;21084071;28;20062;-61
2022/06/22 04:05:57;;;;;;;1.55;0.70;;;;;;;;;;21083858;28;20091;-56
2022/06/22 04:16:21;;;;;;;2.88;1.40;;;;;;;;;;21083899;28;20067;-64
2022/06/22 04:26:30;;;;;;;2.47;1.37;;;;;;;;;;21081629;28;20515;-61
2022/06/22 04:36:39;;;;;;;2.30;1.00;;;;;;;;;;21082492;28;20134;-60
2022/06/22 04:46:43;;;;;;;5.18;1.30;;;;;;;;;;21079884;28;20117;-61
2022/06/22 04:56:48;;;;;;;3.47;1.05;;;;;;;;;;21080764;28;20040;-61
2022/06/22 05:06:53;;;;;;;3.30;1.10;;;;;;;;;;21079921;28;20153;-62
2022/06/22 05:16:58;;;;;;;8.93;1.40;;;;;;;;;;21079852;28;20044;-65
2022/06/22 05:27:05;;;;;;;3.03;1.30;;;;;;;;;;21078275;28;20048;-60
2022/06/22 05:37:13;;;;;;;5.45;1.00;;;;;;;;;;21078221;28;20454;-59
2022/06/22 05:47:19;;;;;;;4.97;1.38;;;;;;;;;;21077092;28;20106;-61
2022/06/22 05:57:42;;;;;;;2.42;1.00;;;;;;;;;;21078684;28;20185;-65
2022/06/22 06:07:59;;;;;;;3.88;1.40;;;;;;;;;;21076717;28;20139;-61
2022/06/22 06:18:04;;;;;;;3.03;1.35;;;;;;;;;;21076487;28;20434;-58
2022/06/22 06:28:08;;;;;;;7.05;1.42;;;;;;;;;;21076373;28;20389;-64
2022/06/22 06:38:23;;;;;;;6.82;1.67;;;;;;;;;;21076301;28;20063;-62
2022/06/22 06:48:28;;;;;;;3.67;1.17;;;;;;;;;;21077769;28;20492;-64
2022/06/22 06:58:35;;;;;;;7.00;2.03;;;;;;;;;;21090612;28;20052;-56
2022/06/22 07:08:42;;;;;;;7.03;1.50;;;;;;;;;;21088895;28;20139;-57
2022/06/22 07:18:47;;;;;;;5.63;1.73;;;;;;;;;;21086831;28;20048;-61
2022/06/22 07:29:02;;;;;;;4.80;1.35;;;;;;;;;;21087278;28;20052;-57
2022/06/22 07:39:23;;;;;;;4.05;1.30;;;;;;;;;;21086573;28;20048;-62
2022/06/22 07:49:48;;;;;;;5.28;1.73;;;;;;;;;;21085783;28;20138;-62
2022/06/22 08:00:05;;;;;;;4.20;1.23;;;;;;;;;;21084777;28;20056;-59
2022/06/22 08:10:31;;;;;;;6.25;1.20;;;;;;;;;;21083153;28;20113;-60
2022/06/22 08:20:53;;;;;;;2.28;0.95;;;;;;;;;;21078603;28;20055;-56
2022/06/22 08:31:01;;;;;;;5.93;1.80;;;;;;;;;;21076312;28;20147;-66
2022/06/22 08:41:11;;;;;;;2.50;1.33;;;;;;;;;;21081592;28;20071;-56
2022/06/22 08:51:25;;;;;;;4.53;1.27;;;;;;;;;;21079933;28;20047;-56
2022/06/22 09:01:40;;;;;;;4.22;1.90;;;;;;;;;;21079574;28;20126;-60
2022/06/22 09:11:43;;;;;;;4.28;1.58;;;;;;;;;;21078288;28;20086;-56
2022/06/22 09:21:58;;;;;;;7.05;3.75;;;;;;;;;;21077886;28;20124;-65
2022/06/22 09:32:07;;;;;;;5.03;2.03;;;;;;;;;;21077111;28;20491;-58
2022/06/22 09:42:22;;;;;;;4.60;1.67;;;;;;;;;;21077477;28;20055;-57
2022/06/22 09:52:27;;;;;;;2.88;1.27;;;;;;;;;;21076575;28;20059;-58
2022/06/22 10:02:49;;;;;;;5.60;1.50;;;;;;;;;;21075788;28;20044;-59
2022/06/22 10:13:10;;;;;;;2.58;1.13;;;;;;;;;;21072028;28;20400;-56
2022/06/22 10:23:18;;;;;;;4.20;1.35;;;;;;;;;;21072493;28;20450;-57
2022/06/22 10:33:31;;;;;;;3.33;1.58;;;;;;;;;;21086852;28;20051;-58
2022/06/22 10:54:13;;;;;;;6.65;3.30;;;;;;;;;;21089251;28;20495;-57
2022/06/22 11:04:28;;;;;;;2.92;1.00;;;;;;;;;;21087799;28;20179;-61
2022/06/22 11:14:30;;;;;;;5.28;1.20;;;;;;;;;;21087346;28;20048;-57
2022/06/22 11:24:31;;;;;;;4.47;1.25;;;;;;;;;;21087396;28;20056;-56
2022/06/22 11:34:33;;;;;;;;;;;;;;;;;;21086448;28;20082;-58
2022/06/22 11:55:26;;;;;;;3.00;1.30;;;;;;;;;;21081151;28;20106;-60
2022/06/22 12:06:01;;;;;;;5.80;1.23;;;;;;;;;;21082294;28;20144;-62
2022/06/22 12:16:06;;;;;;;2.03;1.02;;;;;;;;;;20988771;28;20451;-64
2022/06/22 12:26:12;;;;;;;3.45;1.02;;;;;;;;;;20987303;28;20094;-62
2022/06/22 12:36:19;;;;;;;4.30;0.77;;;;;;;;;;20987060;28;20080;-64
2022/06/22 12:46:45;;;;;;;2.95;0.98;;;;;;;;;;20990348;28;20080;-67
2022/06/22 12:56:50;;;;;;;2.78;1.10;;;;;;;;;;20996344;28;20170;-68
2022/06/22 13:06:55;;;;;;;4.30;1.88;;;;;;;;;;20996512;28;20154;-67
2022/06/22 13:17:19;;;;;;;2.60;1.10;;;;;;;;;;20996597;28;20500;-68
2022/06/22 13:27:21;;;;;;;5.38;1.20;;;;;;;;;;20997613;28;20055;-67
2022/06/22 13:37:27;;;;;;;4.50;1.23;;;;;;;;;;20996665;28;20044;-67
2022/06/22 13:47:44;;;;;;;4.10;1.08;;;;;;;;;;20995813;28;20108;-66
2022/06/22 13:57:46;;;;;;;3.53;1.00;;;;;;;;;;20997435;28;20495;-66
2022/06/22 14:07:48;;;;;;;1.85;0.70;;;;;;;;;;21010436;28;20054;-65
2022/06/22 14:17:54;;;;;;;7.88;1.30;;;;;;;;;;21009261;28;20051;-64
2022/06/22 14:27:59;;;;;;;1.95;0.80;;;;;;;;;;21007472;28;20052;-65
2022/06/22 14:38:01;;;;;;;2.38;0.68;;;;;;;;;;21008074;28;20404;-65
2022/06/22 14:48:22;;;;;;;4.95;1.10;;;;;;;;;;21007382;28;20087;-65
2022/06/22 14:58:36;;;;;;;3.95;1.13;;;;;;;;;;21006211;28;20048;-65
2022/06/22 15:08:38;;;;;;;3.30;1.23;;;;;;;;;;21005085;28;20473;-67
2022/06/22 15:18:59;;;;;;;5.28;2.72;;;;;;;;;;21003355;28;20123;-67
2022/06/22 15:29:23;;;;;;;3.97;1.03;;;;;;;;;;21002569;28;20510;-63
2022/06/22 15:39:28;;;;;;;3.90;0.80;;;;;;;;;;21004339;28;20113;-62
2022/06/22 15:49:30;;;;;;;4.45;1.00;;;;;;;;;;21002743;28;20483;-64
2022/06/22 15:59:51;;;;;;;4.07;0.90;;;;;;;;;;21001531;28;20048;-68
2022/06/22 16:10:19;;;;;;;2.53;0.70;;;;;;;;;;21000672;28;20055;-64
2022/06/22 16:20:22;;;;;;;4.22;0.93;;;;;;;;;;21000311;28;20382;-66
2022/06/22 16:30:47;;;;;;;2.15;1.00;;;;;;;;;;20998836;28;20139;-67
2022/06/22 16:41:01;;;;;;;4.13;1.10;;;;;;;;;;21029868;28;20051;-73
2022/06/22 16:51:08;;;;;;;3.97;1.05;;;;;;;;;;21081164;28;20048;-66
2022/06/22 17:01:21;;;;;;;1.95;0.90;;;;;;;;;;21079788;28;20056;-71
2022/06/22 17:11:26;;;;;;;2.28;1.15;;;;;;;;;;21079649;28;20079;-62
2022/06/22 17:21:33;;;;;;;1.45;0.70;;;;;;;;;;21079701;28;20440;-67
2022/06/22 17:31:41;;;;;;;2.63;1.05;;;;;;;;;;21077881;28;20048;-62
2022/06/22 17:41:52;;;;;;;4.53;1.27;;;;;;;;;;21077435;28;20052;-64
2022/06/22 17:51:58;;;;;;;2.45;0.98;;;;;;;;;;21078564;28;20410;-67
2022/06/22 18:02:03;;;;;;;4.97;0.90;;;;;;;;;;21077052;28;20135;-67
2022/06/22 18:12:07;;;;;;;4.55;1.13;;;;;;;;;;21076510;28;20052;-66
2022/06/22 18:22:15;;;;;;;3.88;1.33;;;;;;;;;;21077538;28;20048;-63
2022/06/22 18:32:23;;;;;;;4.00;1.40;;;;;;;;;;21075439;28;20055;-65
2022/06/22 18:42:28;;;;;;;3.38;1.45;;;;;;;;;;21076741;28;20044;-70
2022/06/22 18:52:35;;;;;;;4.05;1.02;;;;;;;;;;21087335;28;20101;-63
2022/06/22 19:02:52;;;;;;;3.78;1.52;;;;;;;;;;21089197;28;20055;-60
2022/06/22 19:12:55;;;;;;;3.58;1.40;;;;;;;;;;21084938;28;20123;-62
2022/06/22 19:23:20;;;;;;;4.88;1.58;;;;;;;;;;21086158;28;20063;-64
2022/06/22 19:33:30;;;;;;;3.63;1.45;;;;;;;;;;21050841;28;20109;-65
2022/06/22 19:43:35;;;;;;;4.35;1.55;;;;;;;;;;21000009;28;20047;-61
2022/06/22 19:53:55;;;;;;;5.03;1.35;;;;;;;;;;21068131;28;20408;-61
2022/06/22 20:04:04;;;;;;;5.07;1.15;;;;;;;;;;21072569;28;20084;-64
2022/06/22 20:14:09;;;;;;;3.72;1.45;;;;;;;;;;21040477;28;20393;-75
2022/06/22 20:24:29;;;;;;;3.15;1.35;;;;;;;;;;21068314;28;20145;-64
2022/06/22 20:34:43;;;;;;;3.22;1.40;;;;;;;;;;21082678;28;20048;-62
2022/06/22 20:44:54;;;;;;;2.75;1.58;;;;;;;;;;21082872;28;20375;-64
2022/06/22 20:54:59;;;;;;;4.63;2.17;;;;;;;;;;21081278;28;20087;-63
2022/06/22 21:05:02;;;;;;;3.40;1.45;;;;;;;;;;21080915;28;20047;-64
2022/06/22 21:15:07;;;;;;;7.63;3.35;;;;;;;;;;21079856;28;20119;-63
2022/06/22 21:25:12;;;;;;;3.88;1.70;;;;;;;;;;21078531;28;20471;-62
2022/06/22 21:35:33;;;;;;;4.47;2.08;;;;;;;;;;21080886;28;20127;-65
2022/06/22 21:45:36;;;;;;;3.50;1.40;;;;;;;;;;21078159;28;20448;-64
2022/06/22 21:55:51;;;;;;;3.37;1.57;;;;;;;;;;21078419;28;20051;-64
2022/06/22 22:05:59;;;;;;;6.40;2.28;;;;;;;;;;21075758;28;20101;-63
2022/06/22 22:16:04;;;;;;;3.53;1.90;;;;;;;;;;21076499;28;20503;-64
2022/06/22 22:26:07;;;;;;;2.45;1.20;;;;;;;;;;21091731;28;20056;-62
2022/06/22 22:36:20;;;;;;;3.23;1.40;;;;;;;;;;21093056;28;20051;-63
2022/06/22 22:46:25;;;;;;;2.05;1.20;;;;;;;;;;21092045;28;20059;-63
2022/06/22 22:56:27;;;;;;;3.15;1.52;;;;;;;;;;21091496;28;20404;-63
2022/06/22 23:06:31;;;;;;;7.03;1.17;;;;;;;;;;21091034;28;20501;-65
2022/06/22 23:16:37;;;;;;;2.33;0.90;;;;;;;;;;21090273;28;20136;-64
2022/06/22 23:26:43;;;;;;;5.28;1.30;;;;;;;;;;21089703;28;20066;-65
2022/06/22 23:36:45;;;;;;;4.00;1.52;;;;;;;;;;21088159;28;20071;-64
2022/06/22 23:57:14;;;;;;;3.85;1.17;;;;;;;;;;21088020;28;20059;-63
